Map

Track Data

SID SEASON NUMBER BASIN SUBBASIN NAME ISO_TIME NATURE LAT LON WMO_WIND WMO_PRES WMO_AGENCY TRACK_TYPE DIST2LAND LANDFALL IFLAG USA_AGENCY USA_ATCF_ID USA_LAT USA_LON USA_RECORD USA_STATUS USA_WIND USA_PRES USA_SSHS USA_R34_NE USA_R34_SE USA_R34_SW USA_R34_NW USA_R50_NE USA_R50_SE USA_R50_SW USA_R50_NW USA_R64_NE USA_R64_SE USA_R64_SW USA_R64_NW USA_POCI USA_ROCI USA_RMW USA_EYE TOKYO_LAT TOKYO_LON TOKYO_GRADE TOKYO_WIND TOKYO_PRES TOKYO_R50_DIR TOKYO_R50_LONG TOKYO_R50_SHORT TOKYO_R30_DIR TOKYO_R30_LONG TOKYO_R30_SHORT TOKYO_LAND CMA_LAT CMA_LON CMA_CAT CMA_WIND CMA_PRES HKO_LAT HKO_LON HKO_CAT HKO_WIND HKO_PRES NEWDELHI_LAT NEWDELHI_LON NEWDELHI_GRADE NEWDELHI_WIND NEWDELHI_PRES NEWDELHI_CI NEWDELHI_DP NEWDELHI_POCI REUNION_LAT REUNION_LON REUNION_TYPE REUNION_WIND REUNION_PRES REUNION_TNUM REUNION_CI REUNION_RMW REUNION_R34_NE REUNION_R34_SE REUNION_R34_SW REUNION_R34_NW REUNION_R50_NE REUNION_R50_SE REUNION_R50_SW REUNION_R50_NW REUNION_R64_NE REUNION_R64_SE REUNION_R64_SW REUNION_R64_NW BOM_LAT BOM_LON BOM_TYPE BOM_WIND BOM_PRES BOM_TNUM BOM_CI BOM_RMW BOM_R34_NE BOM_R34_SE BOM_R34_SW BOM_R34_NW BOM_R50_NE BOM_R50_SE BOM_R50_SW BOM_R50_NW BOM_R64_NE BOM_R64_SE BOM_R64_SW BOM_R64_NW BOM_ROCI BOM_POCI BOM_EYE BOM_POS_METHOD BOM_PRES_METHOD NADI_LAT NADI_LON NADI_CAT NADI_WIND NADI_PRES WELLINGTON_LAT WELLINGTON_LON WELLINGTON_WIND WELLINGTON_PRES DS824_LAT DS824_LON DS824_STAGE DS824_WIND DS824_PRES TD9636_LAT TD9636_LON TD9636_STAGE TD9636_WIND TD9636_PRES TD9635_LAT TD9635_LON TD9635_WIND TD9635_PRES TD9635_ROCI NEUMANN_LAT NEUMANN_LON NEUMANN_CLASS NEUMANN_WIND NEUMANN_PRES MLC_LAT MLC_LON MLC_CLASS MLC_WIND MLC_PRES USA_GUST BOM_GUST BOM_GUST_PER REUNION_GUST REUNION_GUST_PER USA_SEAHGT USA_SEARAD_NE USA_SEARAD_SE USA_SEARAD_SW USA_SEARAD_NW STORM_SPEED STORM_DIR
1887252N21089 1887 44 NI BB NOT_NAMED 1887-09-09 00:00:00 TS 21.2000 89.2000 main 45 45 _________O____ -1 21.2000 89.2000 TC 30 0 0
1887252N21089 1887 44 NI BB NOT_NAMED 1887-09-09 03:00:00 TS 21.2000 89.2000 main 45 45 _________PO___ -1 21.2000 89.2000 TC 30 21.2000 89.2000 1 0 0
1887252N21089 1887 44 NI BB NOT_NAMED 1887-09-09 06:00:00 TS 21.2000 89.2000 main 45 45 _________OP___ -1 21.2000 89.2000 TC 30 21.2000 89.2000 1 0 0
1887252N21089 1887 44 NI BB NOT_NAMED 1887-09-09 09:00:00 TS 21.2000 89.2000 main 45 45 _________PP___ -1 21.2000 89.2000 TC 30 21.2000 89.2000 1 0 0
1887252N21089 1887 44 NI BB NOT_NAMED 1887-09-09 12:00:00 TS 21.2000 89.2000 main 45 45 _________OP___ -1 21.2000 89.2000 TC 30 21.2000 89.2000 1 0 0
1887252N21089 1887 44 NI BB NOT_NAMED 1887-09-09 15:00:00 TS 21.2000 89.2000 main 45 45 _________PO___ -1 21.2000 89.2000 TC 30 21.2000 89.2000 1 0 0
1887252N21089 1887 44 NI BB NOT_NAMED 1887-09-09 18:00:00 TS 21.2000 89.2000 main 45 45 _________OP___ -1 21.2000 89.2000 TC 30 21.2000 89.2000 1 0 0
1887252N21089 1887 44 NI BB NOT_NAMED 1887-09-09 21:00:00 TS 21.2000 89.2000 main 45 45 _________PP___ -1 21.2000 89.2000 TC 30 21.2000 89.2000 1 0 0
1887252N21089 1887 44 NI BB NOT_NAMED 1887-09-10 00:00:00 TS 21.2000 89.2000 main 45 45 _________OP___ -1 21.2000 89.2000 TC 30 21.2000 89.2000 1 0 0
1887252N21089 1887 44 NI BB NOT_NAMED 1887-09-10 03:00:00 TS 21.2000 89.2000 main 45 45 _________PO___ -1 21.2000 89.2000 TC 30 21.2000 89.2000 1 0 0
1887252N21089 1887 44 NI BB NOT_NAMED 1887-09-10 06:00:00 TS 21.2000 89.2000 main 45 45 _________OP___ -1 21.2000 89.2000 TC 30 21.2000 89.2000 1 0 0
1887252N21089 1887 44 NI BB NOT_NAMED 1887-09-10 09:00:00 TS 21.2000 89.2000 main 45 45 _________PP___ -1 21.2000 89.2000 TC 30 21.2000 89.2000 1 0 0
1887252N21089 1887 44 NI BB NOT_NAMED 1887-09-10 12:00:00 TS 21.2000 89.2000 main 45 45 _________OP___ -1 21.2000 89.2000 TC 30 21.2000 89.2000 1 0 0
1887252N21089 1887 44 NI BB NOT_NAMED 1887-09-10 15:00:00 TS 21.2000 89.2000 main 45 45 _________PO___ -1 21.2000 89.2000 TC 30 21.2000 89.2000 1 1 93
1887252N21089 1887 44 NI BB NOT_NAMED 1887-09-10 18:00:00 TS 21.1973 89.2649 main 49 49 _________OP___ -1 21.2000 89.2000 TC 30 21.1947 89.3298 1 2 93
1887252N21089 1887 44 NI BB NOT_NAMED 1887-09-10 21:00:00 TS 21.1910 89.3798 main 54 49 _________PP___ -1 21.1919 89.3199 TC 30 21.1901 89.4397 1 0 93
1887252N21089 1887 44 NI BB NOT_NAMED 1887-09-11 00:00:00 TS 21.1952 89.3148 main 49 44 _________OP___ -1 21.2000 89.2000 TC 30 21.1905 89.4297 1 5 274
1887252N21089 1887 44 NI BB NOT_NAMED 1887-09-11 03:00:00 TS 21.2254 88.8601 main 44 33 _________PO___ -1 21.2507 88.5202 TC 30 21.2000 89.2000 1 11 273
1887252N21089 1887 44 NI BB NOT_NAMED 1887-09-11 06:00:00 TS 21.2599 88.1150 main 35 33 _________OP___ -1 21.3000 87.6000 TC 30 21.2198 88.6300 1 14 272
1887252N21089 1887 44 NI BB NOT_NAMED 1887-09-11 09:00:00 TS 21.2762 87.3199 main 30 0 _________PP___ -1 21.3071 86.7999 TC 30 21.2454 87.8398 1 15 271
1887252N21089 1887 44 NI BB NOT_NAMED 1887-09-11 12:00:00 TS 21.2864 86.4649 main 0 0 _________OP___ -1 21.3000 86.0000 TC 30 21.2728 86.9298 1 16 271
1887252N21089 1887 44 NI BB NOT_NAMED 1887-09-11 15:00:00 TS 21.2961 85.5999 main 0 0 _________PO___ -1 21.2921 85.1999 TC 30 21.3000 86.0000 1 16 271
1887252N21089 1887 44 NI BB NOT_NAMED 1887-09-11 18:00:00 TS 21.3155 84.7352 main 0 0 _________OP___ -1 21.3000 84.4000 TC 30 21.3309 85.0705 1 17 272
1887252N21089 1887 44 NI BB NOT_NAMED 1887-09-11 21:00:00 TS 21.3555 83.8204 main 0 0 _________PP___ -1 21.3507 83.4803 TC 30 21.3604 84.1606 1 15 273
1887252N21089 1887 44 NI BB NOT_NAMED 1887-09-12 00:00:00 TS 21.3921 83.0852 main 0 0 _________OP___ -1 21.4000 82.8000 TC 30 21.3842 83.3703 1 10 273
1887252N21089 1887 44 NI BB NOT_NAMED 1887-09-12 03:00:00 TS 21.4034 82.7400 main 0 0 _________PO___ -1 21.4069 82.6799 TC 30 21.4000 82.8000 1 4 272
1887252N21089 1887 44 NI BB NOT_NAMED 1887-09-12 06:00:00 TS 21.4024 82.6850 main 0 0 _________OP___ -1 21.4000 82.8000 TC 30 21.4048 82.5700 1 1 269
1887252N21089 1887 44 NI BB NOT_NAMED 1887-09-12 09:00:00 TS 21.4025 82.6800 main 0 0 _________PP___ -1 21.4000 82.8000 TC 30 21.4051 82.5600 1 0 91
1887252N21089 1887 44 NI BB NOT_NAMED 1887-09-12 12:00:00 TS 21.4014 82.7350 main 0 0 _________OP___ -1 21.4000 82.8000 TC 30 21.4028 82.6700 1 1 91
1887252N21089 1887 44 NI BB NOT_NAMED 1887-09-12 15:00:00 TS 21.4000 82.8000 main 0 0 _________PO___ -1 21.4000 82.8000 TC 30 21.4000 82.8000 1 1 92
1887252N21089 1887 44 NI BB NOT_NAMED 1887-09-12 18:00:00 TS 21.3976 82.8487 main 0 0 _________OP___ -1 21.4000 82.8000 TC 30 21.3952 82.8974 1 1 92
1887252N21089 1887 44 NI BB NOT_NAMED 1887-09-12 21:00:00 TS 21.3955 82.9237 main 0 0 _________PP___ -1 21.3998 82.8675 TC 30 21.3911 82.9798 1 0 93
1887252N21089 1887 44 NI BB NOT_NAMED 1887-09-13 00:00:00 TS 21.3957 82.8862 main 0 0 _________OP___ -1 21.4000 82.8000 TC 30 21.3915 82.9723 1 3 270
1887252N21089 1887 44 NI BB NOT_NAMED 1887-09-13 03:00:00 TS 21.3961 82.6312 main 0 0 _________PO___ -1 21.3923 82.4624 TC 30 21.4000 82.8000 1 7 271
1887252N21089 1887 44 NI BB NOT_NAMED 1887-09-13 06:00:00 TS 21.4095 82.1342 main 0 0 _________OP___ -1 21.4000 81.9000 TC 30 21.4190 82.3685 1 11 273
1887252N21089 1887 44 NI BB NOT_NAMED 1887-09-13 09:00:00 TS 21.4474 81.4726 main 0 0 _________PP___ -1 21.4505 81.1727 TC 30 21.4443 81.7725 1 13 273
1887252N21089 1887 44 NI BB NOT_NAMED 1887-09-13 12:00:00 TS 21.4861 80.7451 main 0 0 _________OP___ -1 21.5000 80.4000 TC 30 21.4721 81.0903 1 13 272
1887252N21089 1887 44 NI BB NOT_NAMED 1887-09-13 15:00:00 TS 21.4998 80.0849 main 0 0 _________PO___ -1 21.4996 79.7698 TC 30 21.5000 80.4000 1 11 271
1887252N21089 1887 44 NI BB NOT_NAMED 1887-09-13 18:00:00 TS 21.5152 79.5222 main 0 0 _________OP___ -1 21.5000 79.2000 TC 30 21.5267 79.7639 1 10 273
1887252N21089 1887 44 NI BB NOT_NAMED 1887-09-13 21:00:00 TS 21.5465 78.9672 main 0 0 _________PP___ -1 21.5379 78.6477 TC 30 21.5522 79.1802 1 10 274
1887252N21089 1887 44 NI BB NOT_NAMED 1887-09-14 00:00:00 TS 21.5845 78.4543 main 0 0 _________OP___ -1 21.6000 78.1000 TC 30 21.5767 78.6315 1 8 274
1887252N21089 1887 44 NI BB NOT_NAMED 1887-09-14 03:00:00 NR 21.6000 78.1000 main 0 __________O___ -1 TC 21.6000 78.1000 1 7 273

About IBTrACS Database

This database is a web-friendly format of International Best Track Archive for Climate Stewardship (IBTrACS), a global best track data archive curated by NOAA dating back to 1842.

Updated: 2021-10-21